Time;durP1;ratioP1;P1;durP2;ratioP2;P2;SDS_P1;SDS_P2;PMS_P1;PMS_P2;Temp;Humidity;BMP_temperature;BMP_pressure;BME280_temperature;BME280_humidity;BME280_pressure;Samples;Min_cycle;Max_cycle;Signal;HPM_P1;HPM_P2
2021/12/31 00:00:29;;;;;;;35.90;17.70;;;;;;;-2.25;60.77;101087.88;117387;1182;21859;-62
2021/12/31 00:02:57;;;;;;;42.40;20.90;;;;;;;-2.23;60.70;101086.11;117522;1182;21993;-62
2021/12/31 00:05:26;;;;;;;47.70;23.10;;;;;;;-2.23;60.78;101084.20;117402;1184;21851;-62
2021/12/31 00:07:54;;;;;;;47.80;22.40;;;;;;;-2.16;60.86;101082.82;117372;1180;24145;-62
2021/12/31 00:10:22;;;;;;;43.10;21.50;;;;;;;-2.14;60.73;101084.69;117386;1185;21848;-62
2021/12/31 00:12:51;;;;;;;38.40;19.30;;;;;;;-2.13;60.87;101085.59;117334;1185;21859;-62
2021/12/31 00:15:19;;;;;;;42.20;20.10;;;;;;;-2.11;60.77;101080.71;117362;1182;24175;-73
2021/12/31 00:17:52;;;;;;;41.70;20.50;;;;;;;-2.11;60.66;101082.88;117347;1185;21981;-62
2021/12/31 00:20:24;;;;;;;41.70;18.90;;;;;;;-2.13;60.67;101084.19;117420;1184;21859;-62
2021/12/31 00:25:31;;;;;;;44.90;21.30;;;;;;;-2.18;60.64;101100.80;117288;1186;21860;-62
2021/12/31 00:27:59;;;;;;;48.20;22.10;;;;;;;-2.20;60.77;101096.55;117406;1182;23541;-74
2021/12/31 00:30:28;;;;;;;42.10;20.20;;;;;;;-2.17;60.82;101088.26;117320;1186;21849;-70
2021/12/31 00:32:57;;;;;;;47.60;21.70;;;;;;;-2.15;60.81;101086.68;117386;1185;22999;-61
2021/12/31 00:35:28;;;;;;;48.80;21.60;;;;;;;-2.11;60.90;101086.20;117447;1185;22898;-63
2021/12/31 00:37:57;;;;;;;42.10;19.30;;;;;;;-2.05;60.89;101081.85;117380;1185;22913;-74
2021/12/31 00:40:28;;;;;;;47.00;20.30;;;;;;;-2.04;60.94;101076.03;117427;1185;22405;-62
2021/12/31 00:42:56;;;;;;;43.20;19.70;;;;;;;-2.04;60.87;101074.14;117390;1185;21861;-62
2021/12/31 00:45:25;;;;;;;43.50;20.40;;;;;;;-2.01;60.96;101076.36;117367;1185;21858;-74
2021/12/31 00:47:54;;;;;;;53.60;22.50;;;;;;;-1.98;60.92;101079.41;117408;1185;22650;-74
2021/12/31 00:50:23;;;;;;;44.00;18.80;;;;;;;-1.98;60.79;101074.98;117389;1182;23506;-73
2021/12/31 00:52:51;;;;;;;44.20;19.40;;;;;;;-1.97;60.88;101068.48;117188;1178;21862;-73
2021/12/31 00:55:19;;;;;;;43.90;20.60;;;;;;;-1.93;61.04;101061.76;117373;1185;21859;-76
2021/12/31 00:57:49;;;;;;;42.90;22.10;;;;;;;-1.89;61.03;101053.69;117377;1185;21855;-61
2021/12/31 01:00:18;;;;;;;47.40;20.50;;;;;;;-1.85;61.00;101052.53;117541;1185;22966;-74
2021/12/31 01:02:47;;;;;;;41.80;19.50;;;;;;;-1.81;60.99;101049.63;117376;1185;23548;-61
2021/12/31 01:05:15;;;;;;;44.00;21.60;;;;;;;-1.77;61.09;101049.65;117410;1184;21862;-73
2021/12/31 01:07:44;;;;;;;46.60;19.70;;;;;;;-1.73;61.08;101055.51;117388;1185;21858;-61
2021/12/31 01:10:15;;;;;;;45.60;20.80;;;;;;;-1.69;61.09;101055.90;117357;1185;21885;-62
2021/12/31 01:12:58;;;;;;;44.90;20.40;;;;;;;-1.66;61.21;101058.77;117331;1181;23455;-62
2021/12/31 01:15:41;;;;;;;46.50;19.90;;;;;;;-1.63;61.21;101051.52;117395;1185;21858;-74
2021/12/31 01:20:58;;;;;;;46.10;19.80;;;;;;;-1.62;61.18;101029.85;117365;1185;22912;-62
2021/12/31 01:23:27;;;;;;;49.30;19.60;;;;;;;-1.60;61.14;101024.27;117445;1185;21858;-61
2021/12/31 01:25:55;;;;;;;51.40;22.30;;;;;;;-1.57;61.23;101025.32;117413;1184;23458;-62
2021/12/31 01:28:23;;;;;;;44.80;20.70;;;;;;;-1.53;61.11;101024.62;117326;1186;21889;-61
2021/12/31 01:30:53;;;;;;;39.50;18.80;;;;;;;-1.47;61.13;101022.83;117346;1186;21951;-73
2021/12/31 01:33:22;;;;;;;45.70;19.50;;;;;;;-1.48;61.16;101014.02;117321;1182;22586;-74
2021/12/31 01:35:50;;;;;;;43.30;19.50;;;;;;;-1.46;61.05;101020.84;117371;1183;21865;-73
2021/12/31 01:38:19;;;;;;;42.90;19.90;;;;;;;-1.40;61.15;101019.23;117379;1185;22654;-73
2021/12/31 01:40:48;;;;;;;50.50;22.00;;;;;;;-1.35;61.10;101023.23;117356;1184;21845;-73
2021/12/31 01:43:17;;;;;;;46.50;21.90;;;;;;;-1.35;61.11;101018.27;117341;1185;22651;-62
2021/12/31 01:45:55;;;;;;;42.20;20.60;;;;;;;-1.33;61.05;101017.81;117413;1184;21857;-62
2021/12/31 01:48:28;;;;;;;47.90;20.60;;;;;;;-1.28;61.15;101011.30;117359;1183;21902;-62
2021/12/31 01:50:56;;;;;;;45.50;22.80;;;;;;;-1.26;61.16;101009.87;117365;1183;23436;-62
2021/12/31 01:53:26;;;;;;;47.20;22.40;;;;;;;-1.22;61.18;101012.80;117370;1184;23540;-62
2021/12/31 01:56:00;;;;;;;40.70;19.80;;;;;;;-1.17;61.18;101018.69;117363;1185;21915;-62
2021/12/31 01:58:28;;;;;;;46.40;22.60;;;;;;;-1.15;61.06;101024.98;117399;1185;21844;-61
2021/12/31 02:01:03;;;;;;;48.90;22.40;;;;;;;-1.13;61.15;101019.05;117035;1187;22934;-73
2021/12/31 02:03:33;;;;;;;48.20;22.90;;;;;;;-1.12;60.97;101012.58;117306;1186;23014;-73
2021/12/31 02:06:03;;;;;;;54.10;24.80;;;;;;;-1.12;61.07;101019.11;117269;1186;22967;-62
2021/12/31 02:08:31;;;;;;;71.80;30.20;;;;;;;-1.17;60.93;101022.01;117388;1185;21858;-61
2021/12/31 02:11:00;;;;;;;56.60;26.10;;;;;;;-1.17;61.13;101019.05;117375;1176;23541;-73
2021/12/31 02:13:28;;;;;;;57.30;25.60;;;;;;;-1.15;61.18;101015.20;117334;1188;21845;-74
2021/12/31 02:16:04;;;;;;;58.50;25.40;;;;;;;-1.14;61.26;101013.67;117283;1183;23787;-73
2021/12/31 02:18:47;;;;;;;51.40;22.80;;;;;;;-1.15;61.02;101010.04;117330;1186;21864;-73
2021/12/31 02:21:16;;;;;;;52.90;24.20;;;;;;;-1.17;60.88;101004.92;117388;1182;21859;-62
2021/12/31 02:23:47;;;;;;;72.10;34.80;;;;;;;-1.21;61.02;101009.39;117363;1184;23457;-62
2021/12/31 02:26:32;;;;;;;69.60;31.40;;;;;;;-1.23;61.21;101016.54;117313;1180;21862;-73
2021/12/31 02:29:01;;;;;;;77.60;36.00;;;;;;;-1.26;60.95;101013.50;117300;1181;22823;-73
2021/12/31 02:31:30;;;;;;;93.20;37.90;;;;;;;-1.26;60.95;101007.62;117328;1182;21901;-73
2021/12/31 02:33:58;;;;;;;77.60;32.60;;;;;;;-1.27;60.95;100999.62;117448;1185;23088;-74
2021/12/31 02:36:27;;;;;;;65.00;28.90;;;;;;;-1.30;61.00;100997.43;117365;1181;23582;-62
2021/12/31 02:38:55;;;;;;;75.30;30.90;;;;;;;-1.32;61.08;100989.09;117456;1184;21861;-62
2021/12/31 02:41:23;;;;;;;58.60;23.90;;;;;;;-1.35;60.94;100981.92;117321;1186;23463;-62
2021/12/31 02:43:52;;;;;;;51.90;22.10;;;;;;;-1.35;61.13;100976.24;117362;1181;21895;-62
2021/12/31 02:46:21;;;;;;;52.40;23.80;;;;;;;-1.36;61.11;100984.30;117423;1185;21855;-73
2021/12/31 02:48:55;;;;;;;62.80;26.70;;;;;;;-1.40;60.95;100984.78;117362;1182;22364;-62
2021/12/31 02:51:25;;;;;;;78.30;30.70;;;;;;;-1.44;61.00;100990.45;117376;1182;21819;-74
2021/12/31 02:53:54;;;;;;;105.20;44.10;;;;;;;-1.46;61.05;100996.72;117370;1186;21923;-62
2021/12/31 02:56:22;;;;;;;78.00;33.40;;;;;;;-1.45;61.27;100999.16;117171;1185;24153;-62
2021/12/31 02:58:51;;;;;;;65.20;27.50;;;;;;;-1.46;61.08;100997.90;117451;1185;21858;-62
2021/12/31 03:01:19;;;;;;;73.30;31.10;;;;;;;-1.50;61.10;100996.71;117376;1185;23837;-62
2021/12/31 03:03:49;;;;;;;65.70;26.60;;;;;;;-1.51;61.18;100992.38;117363;1186;21861;-74
2021/12/31 03:06:19;;;;;;;63.30;26.90;;;;;;;-1.51;61.08;100988.25;117107;1184;23580;-61
2021/12/31 03:09:04;;;;;;;63.80;25.90;;;;;;;-1.52;61.15;100988.53;117294;1179;23433;-74
2021/12/31 03:11:32;;;;;;;60.20;25.80;;;;;;;-1.50;61.22;100984.49;117399;1184;21848;-73
2021/12/31 03:14:00;;;;;;;57.70;24.90;;;;;;;-1.47;61.24;100987.03;117347;1183;21866;-73
2021/12/31 03:16:29;;;;;;;60.50;27.20;;;;;;;-1.42;61.35;100988.11;117168;1184;21893;-62
2021/12/31 03:18:58;;;;;;;74.00;28.80;;;;;;;-1.41;61.12;100985.77;117367;1185;21849;-73
2021/12/31 03:21:26;;;;;;;60.50;25.30;;;;;;;-1.44;61.16;100988.19;117326;1186;21869;-62
2021/12/31 03:23:55;;;;;;;63.70;25.70;;;;;;;-1.45;61.10;100993.17;117386;1182;23442;-62
2021/12/31 03:26:24;;;;;;;61.20;24.30;;;;;;;-1.44;61.17;100987.20;117385;1186;22917;-62
2021/12/31 03:28:52;;;;;;;73.60;26.90;;;;;;;-1.43;61.11;100984.96;117347;1184;22010;-73
2021/12/31 03:31:27;;;;;;;64.10;25.00;;;;;;;-1.43;61.29;100978.45;117157;1188;21845;-62
2021/12/31 03:33:56;;;;;;;71.40;27.30;;;;;;;-1.40;60.95;100969.80;117325;1182;21848;-61
2021/12/31 03:36:25;;;;;;;78.40;30.00;;;;;;;-1.36;61.14;100965.52;117412;1186;21848;-73
2021/12/31 03:38:53;;;;;;;66.10;25.40;;;;;;;-1.31;61.27;100965.72;117335;1184;21859;-60
2021/12/31 03:41:21;;;;;;;82.50;32.50;;;;;;;-1.22;61.32;100970.42;117362;1185;22909;-60
2021/12/31 03:43:50;;;;;;;85.10;30.40;;;;;;;-1.11;61.37;100966.30;117376;1185;22982;-74
2021/12/31 03:46:19;;;;;;;54.80;21.40;;;;;;;-1.02;61.42;100974.58;117150;1184;22998;-62
2021/12/31 03:48:48;;;;;;;76.00;28.30;;;;;;;-1.03;61.33;100971.11;117361;1185;21856;-63
2021/12/31 03:51:16;;;;;;;65.10;27.00;;;;;;;-1.04;61.31;100971.58;117391;1184;23436;-62
2021/12/31 03:53:44;;;;;;;67.90;28.30;;;;;;;-1.06;61.01;100973.21;117343;1186;22916;-62
2021/12/31 03:56:13;;;;;;;69.00;27.40;;;;;;;-1.06;61.12;100971.63;117342;1185;22310;-62
2021/12/31 03:58:41;;;;;;;63.40;25.20;;;;;;;-1.06;61.30;100965.29;117345;1185;21852;-75
2021/12/31 04:01:09;;;;;;;72.50;27.20;;;;;;;-1.07;61.11;100964.55;117420;1185;24130;-76
2021/12/31 04:03:38;;;;;;;75.90;29.10;;;;;;;-1.09;61.11;100971.01;117384;1186;21900;-61
2021/12/31 04:06:07;;;;;;;75.20;29.30;;;;;;;-1.09;61.30;100968.59;117522;1182;23452;-75
2021/12/31 04:08:35;;;;;;;68.50;26.40;;;;;;;-1.06;61.01;100972.34;117374;1185;22900;-61
2021/12/31 04:11:04;;;;;;;74.60;29.60;;;;;;;-1.13;61.17;100972.23;117426;1184;21855;-62
2021/12/31 04:13:34;;;;;;;95.70;45.50;;;;;;;-1.14;61.34;100976.81;117462;1176;21847;-61
2021/12/31 04:16:03;;;;;;;66.10;29.00;;;;;;;-1.11;61.27;100968.70;117367;1186;21861;-75
2021/12/31 04:18:31;;;;;;;58.60;25.60;;;;;;;-1.14;61.24;100965.11;117380;1185;21863;-75
2021/12/31 04:21:00;;;;;;;65.00;28.00;;;;;;;-1.15;61.32;100967.98;117361;1186;23436;-61
2021/12/31 04:23:32;;;;;;;72.80;31.40;;;;;;;-1.14;61.28;100965.11;117376;1186;22910;-62
2021/12/31 04:26:06;;;;;;;78.70;27.30;;;;;;;-1.03;60.98;100966.95;117266;1187;21856;-75
2021/12/31 04:28:34;;;;;;;;;;;;;;;-0.80;60.83;100958.13;117430;1184;23466;-75
2021/12/31 04:31:04;;;;;;;72.00;26.70;;;;;;;-0.87;60.75;100950.92;117384;1185;23443;-75
2021/12/31 04:33:32;;;;;;;86.60;31.40;;;;;;;-1.10;60.99;100952.72;117363;1185;22651;-62
2021/12/31 04:36:01;;;;;;;129.30;41.60;;;;;;;-1.16;61.03;100951.23;117357;1186;22942;-62
2021/12/31 04:38:29;;;;;;;68.20;28.90;;;;;;;-1.18;61.18;100945.46;117360;1186;21862;-62
2021/12/31 04:40:58;;;;;;;60.30;25.70;;;;;;;-1.20;61.32;100951.09;117349;1186;21857;-62
2021/12/31 04:43:26;;;;;;;61.80;25.80;;;;;;;-1.19;61.12;100948.17;117414;1185;21861;-62
2021/12/31 04:45:54;;;;;;;54.90;24.80;;;;;;;-1.16;61.26;100944.70;117359;1185;21857;-62
2021/12/31 04:48:24;;;;;;;60.60;23.40;;;;;;;-1.17;61.32;100939.15;117375;1184;21861;-75
2021/12/31 04:50:52;;;;;;;65.40;27.60;;;;;;;-1.16;61.04;100938.14;117222;1188;21895;-62
2021/12/31 04:53:20;;;;;;;64.10;27.70;;;;;;;-1.21;61.20;100937.79;117425;1188;21851;-62
2021/12/31 04:55:50;;;;;;;68.60;28.70;;;;;;;-1.20;61.28;100950.71;117349;1185;21874;-62
2021/12/31 04:58:18;;;;;;;76.20;34.00;;;;;;;-1.19;61.19;100959.72;117378;1185;21849;-62
2021/12/31 05:00:49;;;;;;;82.40;32.60;;;;;;;-1.16;61.14;100964.66;117404;1184;21861;-62
2021/12/31 05:03:18;;;;;;;81.00;32.40;;;;;;;-1.14;61.14;100964.77;117387;1185;21852;-75
2021/12/31 05:05:46;;;;;;;86.40;37.00;;;;;;;-1.15;61.20;100966.59;117406;1185;21891;-76
2021/12/31 05:08:15;;;;;;;72.90;30.80;;;;;;;-1.17;61.29;100960.16;117404;1185;21861;-76
2021/12/31 05:10:43;;;;;;;58.60;25.90;;;;;;;-1.16;61.28;100953.80;117401;1185;21852;-62
2021/12/31 05:13:15;;;;;;;62.60;26.60;;;;;;;-1.18;61.26;100953.21;117444;1185;21862;-61
2021/12/31 05:15:46;;;;;;;59.70;27.00;;;;;;;-1.17;61.27;100952.58;117362;1185;21867;-64
2021/12/31 05:18:14;;;;;;;58.50;25.10;;;;;;;-1.17;61.08;100951.71;117326;1185;21979;-61
2021/12/31 05:20:43;;;;;;;56.00;25.10;;;;;;;-1.16;61.22;100946.91;117416;1185;21910;-76
2021/12/31 05:23:11;;;;;;;58.30;25.40;;;;;;;-1.17;61.05;100942.90;117330;1186;21859;-62
2021/12/31 05:25:40;;;;;;;51.00;23.30;;;;;;;-1.19;61.17;100940.78;117368;1185;21858;-77
2021/12/31 05:28:08;;;;;;;68.90;30.70;;;;;;;-1.20;60.96;100941.60;117356;1185;23471;-78
2021/12/31 05:30:36;;;;;;;59.90;30.30;;;;;;;-1.19;61.27;100940.26;117417;1185;21854;-62
2021/12/31 05:33:05;;;;;;;51.40;26.00;;;;;;;-1.21;61.17;100937.05;117424;1185;23455;-62
2021/12/31 05:35:35;;;;;;;;;;;;;;;-1.25;61.26;100932.77;117358;1185;21884;-68
2021/12/31 05:38:03;;;;;;;50.30;24.20;;;;;;;-1.25;61.11;100932.42;117410;1185;21855;-61
2021/12/31 05:40:32;;;;;;;102.30;48.00;;;;;;;-1.15;61.33;100932.35;117350;1185;21848;-74
2021/12/31 05:43:00;;;;;;;80.30;37.70;;;;;;;-1.11;61.27;100922.20;117387;1184;21860;-62
2021/12/31 05:45:28;;;;;;;59.70;28.60;;;;;;;-1.13;61.29;100919.67;117328;1185;23541;-74
2021/12/31 05:48:17;;;;;;;50.90;23.30;;;;;;;-1.15;61.13;100920.11;117342;1185;21861;-62
2021/12/31 05:50:45;;;;;;;53.10;24.30;;;;;;;-1.15;61.12;100924.76;117504;1185;23437;-76
2021/12/31 05:53:13;;;;;;;243.00;95.30;;;;;;;-1.14;61.10;100934.60;117302;1186;22303;-62
2021/12/31 05:55:42;;;;;;;148.80;60.20;;;;;;;-1.18;61.16;100940.99;117314;1185;21983;-62
2021/12/31 05:58:10;;;;;;;94.50;39.50;;;;;;;-1.22;61.03;100938.95;117305;1185;22822;-61
2021/12/31 06:00:39;;;;;;;87.70;36.50;;;;;;;-1.28;61.04;100935.05;118035;1185;21780;-63
2021/12/31 06:03:07;;;;;;;213.10;80.90;;;;;;;-1.29;60.98;100932.39;117914;1184;21855;-77
2021/12/31 06:05:38;;;;;;;389.20;136.70;;;;;;;-1.29;61.15;100932.90;117317;1188;23459;-63
2021/12/31 06:08:06;;;;;;;227.50;89.40;;;;;;;-1.30;61.22;100932.17;117280;1184;23044;-64
2021/12/31 06:10:39;;;;;;;163.70;67.70;;;;;;;-1.30;61.23;100929.42;117360;1181;23496;-79
2021/12/31 06:13:10;;;;;;;93.40;38.80;;;;;;;-1.29;61.31;100919.98;117131;1189;21858;-62
2021/12/31 06:15:41;;;;;;;75.90;31.40;;;;;;;-1.27;61.19;100913.05;117361;1185;21861;-62
2021/12/31 06:18:11;;;;;;;72.10;30.20;;;;;;;-1.20;61.14;100915.92;117356;1185;22912;-62
2021/12/31 06:20:41;;;;;;;70.00;29.40;;;;;;;-1.14;61.27;100911.02;117187;1186;21856;-78
2021/12/31 06:23:09;;;;;;;69.90;27.90;;;;;;;-1.08;61.52;100912.66;117357;1182;21845;-79
2021/12/31 06:25:37;;;;;;;64.30;28.20;;;;;;;-1.02;61.45;100910.50;117333;1185;21859;-80
2021/12/31 06:28:06;;;;;;;60.20;27.20;;;;;;;-0.97;61.37;100906.23;117351;1186;23440;-79
2021/12/31 06:30:34;;;;;;;60.50;27.00;;;;;;;-0.89;61.38;100904.84;117336;1186;21856;-62
2021/12/31 06:33:03;;;;;;;53.50;24.70;;;;;;;-0.78;61.55;100914.65;117354;1182;22996;-80
2021/12/31 06:35:31;;;;;;;54.40;24.70;;;;;;;-0.71;61.57;100919.22;117426;1185;22313;-62
2021/12/31 06:38:01;;;;;;;71.20;30.70;;;;;;;-0.66;61.53;100926.84;117349;1183;22718;-75
2021/12/31 06:40:31;;;;;;;75.70;32.20;;;;;;;-0.59;61.64;100940.39;117346;1185;22731;-61
2021/12/31 06:43:00;;;;;;;97.40;40.60;;;;;;;-0.55;61.56;100937.11;117366;1183;22622;-63
2021/12/31 06:45:30;;;;;;;125.40;49.60;;;;;;;-0.58;61.64;100929.94;117283;1182;22021;-77
2021/12/31 06:47:59;;;;;;;126.00;48.60;;;;;;;-0.54;61.46;100920.66;117388;1185;23437;-78
2021/12/31 06:50:30;;;;;;;129.90;48.80;;;;;;;-0.56;61.35;100910.55;117321;1184;24245;-75
2021/12/31 06:52:58;;;;;;;112.80;46.40;;;;;;;-0.62;61.34;100904.98;117356;1184;23445;-79
2021/12/31 06:55:27;;;;;;;126.30;49.90;;;;;;;-0.63;61.54;100904.22;117351;1185;23276;-79
2021/12/31 06:57:55;;;;;;;123.40;45.40;;;;;;;-0.64;61.49;100906.23;117365;1185;23460;-80
2021/12/31 07:00:24;;;;;;;89.00;35.10;;;;;;;-0.60;61.75;100900.36;117500;1185;23523;-80
2021/12/31 07:03:06;;;;;;;95.90;39.20;;;;;;;-0.54;61.84;100904.42;117276;1186;21949;-79
2021/12/31 07:05:34;;;;;;;69.90;28.30;;;;;;;-0.47;61.64;100907.15;117349;1176;21854;-81
2021/12/31 07:08:03;;;;;;;77.20;31.90;;;;;;;-0.39;61.84;100908.33;117433;1185;22909;-81
2021/12/31 07:10:33;;;;;;;65.60;28.60;;;;;;;-0.31;61.65;100911.41;117210;1185;22641;-81
2021/12/31 07:13:05;;;;;;;58.90;27.10;;;;;;;-0.28;61.63;100910.48;117299;1180;21837;-82
2021/12/31 07:15:33;;;;;;;67.60;28.50;;;;;;;-0.25;61.74;100911.09;117314;1188;21850;-64
2021/12/31 07:18:02;;;;;;;64.20;27.20;;;;;;;-0.21;62.04;100910.59;117448;1185;23461;-78
2021/12/31 07:20:37;;;;;;;55.70;23.50;;;;;;;-0.10;61.59;100909.98;117069;1183;22313;-64
2021/12/31 07:23:07;;;;;;;72.40;30.70;;;;;;;-0.03;61.76;100919.24;117414;1186;23437;-81
2021/12/31 07:25:36;;;;;;;59.60;26.70;;;;;;;0.04;61.74;100915.68;117291;1186;23544;-81
2021/12/31 07:28:04;;;;;;;60.80;27.00;;;;;;;0.13;61.72;100912.59;117422;1185;22950;-80
2021/12/31 07:30:33;;;;;;;56.90;24.60;;;;;;;0.23;61.94;100929.02;117337;1186;21868;-80
2021/12/31 07:33:03;;;;;;;59.80;25.90;;;;;;;0.31;62.21;100931.41;117307;1185;21859;-75
2021/12/31 07:35:32;;;;;;;56.10;25.70;;;;;;;0.39;62.11;100924.27;117411;1185;21848;-75
2021/12/31 07:38:00;;;;;;;57.80;24.60;;;;;;;0.48;62.09;100924.27;117353;1189;21858;-75
2021/12/31 07:40:39;;;;;;;49.10;23.30;;;;;;;0.56;62.13;100927.01;117416;1177;21943;-69
2021/12/31 07:43:08;;;;;;;57.70;28.90;;;;;;;0.63;62.07;100933.30;117294;1183;23564;-69
2021/12/31 07:45:36;;;;;;;58.10;26.10;;;;;;;0.65;62.01;100928.70;117304;1185;21871;-69
2021/12/31 07:48:05;;;;;;;67.90;31.20;;;;;;;0.69;62.01;100929.36;117625;1185;23541;-70
2021/12/31 07:50:36;;;;;;;47.90;23.40;;;;;;;0.74;61.90;100932.48;117371;1183;21861;-69
2021/12/31 07:53:06;;;;;;;43.80;21.40;;;;;;;0.80;61.99;100932.86;117343;1185;21867;-74
2021/12/31 07:55:35;;;;;;;43.50;20.50;;;;;;;0.84;61.96;100925.41;117363;1185;22158;-68
2021/12/31 07:58:03;;;;;;;42.40;20.70;;;;;;;0.84;61.61;100922.84;117394;1185;23541;-69
2021/12/31 08:00:33;;;;;;;44.90;22.30;;;;;;;0.85;61.94;100921.48;117390;1183;23551;-69
2021/12/31 08:03:02;;;;;;;48.90;22.90;;;;;;;0.85;62.06;100915.45;117375;1182;22911;-74
2021/12/31 08:05:32;;;;;;;;;;;;;;;0.88;61.67;100918.31;117571;1183;21848;-73
2021/12/31 08:08:04;;;;;;;61.60;28.30;;;;;;;0.91;61.89;100913.89;117354;1183;22983;-71
2021/12/31 08:10:34;;;;;;;49.60;22.50;;;;;;;0.96;61.91;100907.33;117366;1185;23458;-69
2021/12/31 08:13:25;;;;;;;45.30;22.40;;;;;;;1.02;61.82;100904.64;117272;1185;21907;-72
2021/12/31 08:15:54;;;;;;;59.10;30.20;;;;;;;1.09;62.01;100901.23;117309;1179;23544;-67
2021/12/31 08:18:22;;;;;;;71.30;31.40;;;;;;;1.15;61.82;100897.80;117383;1186;21932;-69
2021/12/31 08:21:11;;;;;;;62.90;27.00;;;;;;;1.22;61.99;100905.81;117273;1189;21870;-67
2021/12/31 08:23:39;;;;;;;91.40;36.90;;;;;;;1.23;61.69;100899.79;117302;1186;21978;-69
2021/12/31 08:26:07;;;;;;;71.00;32.90;;;;;;;1.23;62.08;100897.90;119310;1183;21827;-67
2021/12/31 08:28:35;;;;;;;57.10;31.40;;;;;;;1.24;61.91;100893.43;118467;1186;23641;-67
2021/12/31 08:31:03;;;;;;;50.90;27.50;;;;;;;1.24;62.13;100897.42;117295;1186;24135;-67
2021/12/31 08:33:32;;;;;;;53.50;27.10;;;;;;;1.27;61.98;100902.35;117209;1186;21864;-71
2021/12/31 08:36:00;;;;;;;49.70;23.70;;;;;;;1.30;61.86;100903.17;117274;1186;21917;-70
2021/12/31 08:38:29;;;;;;;46.90;23.60;;;;;;;1.35;62.01;100904.50;117201;1183;22633;-68
2021/12/31 08:41:01;;;;;;;42.90;22.50;;;;;;;1.36;61.98;100902.13;117104;1188;23736;-71
2021/12/31 08:43:30;;;;;;;41.40;20.40;;;;;;;1.39;61.89;100899.48;117087;1182;23631;-69
2021/12/31 08:45:58;;;;;;;44.80;21.40;;;;;;;1.42;62.02;100902.50;117263;1186;23558;-70
2021/12/31 08:48:42;;;;;;;43.90;22.20;;;;;;;1.45;62.00;100907.83;117254;1183;24296;-69
2021/12/31 08:51:10;;;;;;;37.00;20.10;;;;;;;1.50;61.96;100900.19;117284;1188;24726;-70
2021/12/31 08:53:39;;;;;;;38.50;20.00;;;;;;;1.56;62.07;100891.70;117274;1184;23475;-69
2021/12/31 08:56:08;;;;;;;40.00;20.50;;;;;;;1.61;62.09;100882.90;117436;1186;23561;-69
2021/12/31 08:58:36;;;;;;;39.70;20.50;;;;;;;1.66;62.14;100873.34;117365;1185;21998;-70
2021/12/31 09:01:17;;;;;;;45.20;23.60;;;;;;;1.69;62.06;100872.93;117209;1185;21848;-68
2021/12/31 09:03:46;;;;;;;52.80;27.60;;;;;;;1.71;62.17;100875.61;117314;1184;22917;-69
2021/12/31 09:06:17;;;;;;;53.30;28.70;;;;;;;1.74;61.96;100869.29;116956;1186;21862;-69
2021/12/31 09:08:46;;;;;;;53.00;25.60;;;;;;;1.77;62.27;100866.29;117138;1186;22020;-68
2021/12/31 09:11:15;;;;;;;48.40;25.40;;;;;;;1.81;62.15;100858.78;117201;1186;23465;-69
2021/12/31 09:13:46;;;;;;;39.00;21.70;;;;;;;1.84;62.11;100851.61;117291;1186;21950;-65
2021/12/31 09:16:15;;;;;;;39.60;21.40;;;;;;;1.87;62.22;100850.30;117296;1185;21849;-67
2021/12/31 09:18:44;;;;;;;39.20;20.60;;;;;;;1.89;62.07;100839.65;117200;1186;21913;-68
2021/12/31 09:21:12;;;;;;;38.00;20.40;;;;;;;1.93;61.96;100840.98;117405;1185;21890;-68
2021/12/31 09:23:41;;;;;;;40.60;21.70;;;;;;;1.97;62.09;100837.63;117398;1186;21974;-65
2021/12/31 09:26:09;;;;;;;40.80;21.50;;;;;;;2.02;62.27;100835.86;117328;1185;21862;-65
2021/12/31 09:28:52;;;;;;;42.40;24.20;;;;;;;2.06;62.22;100839.29;117316;1185;21861;-64
2021/12/31 09:31:20;;;;;;;38.90;21.10;;;;;;;2.13;62.10;100830.65;117284;1182;21851;-67
2021/12/31 09:33:51;;;;;;;39.00;21.20;;;;;;;2.18;62.13;100832.20;117334;1182;22171;-67
2021/12/31 09:36:19;;;;;;;38.00;20.40;;;;;;;2.23;62.03;100823.84;117381;1183;24156;-66
2021/12/31 09:38:47;;;;;;;38.50;21.60;;;;;;;2.28;62.32;100823.66;117261;1186;23490;-67
2021/12/31 09:41:15;;;;;;;41.00;22.50;;;;;;;2.33;62.20;100832.09;117329;1183;21860;-67
2021/12/31 09:43:48;;;;;;;40.00;22.90;;;;;;;2.35;62.10;100829.73;117309;1186;23617;-65
2021/12/31 09:46:18;;;;;;;48.60;25.30;;;;;;;2.36;62.00;100818.88;117364;1185;21861;-66
2021/12/31 09:48:47;;;;;;;44.20;23.70;;;;;;;2.37;62.03;100818.72;117315;1189;21876;-64
2021/12/31 09:51:16;;;;;;;40.80;21.70;;;;;;;2.38;62.14;100824.45;117263;1183;23440;-64
2021/12/31 09:53:45;;;;;;;35.70;20.50;;;;;;;2.38;62.12;100819.27;117332;1182;24159;-67
2021/12/31 09:56:13;;;;;;;36.20;20.20;;;;;;;2.40;62.18;100822.42;117301;1186;24200;-66
2021/12/31 09:58:42;;;;;;;41.40;24.50;;;;;;;2.44;62.20;100817.34;117122;1183;23436;-66
2021/12/31 10:01:11;;;;;;;32.80;19.30;;;;;;;2.49;62.26;100823.53;117272;1186;21889;-67
2021/12/31 10:03:40;;;;;;;32.20;17.80;;;;;;;2.52;62.16;100821.73;117296;1185;21871;-62
2021/12/31 10:06:10;;;;;;;34.80;19.60;;;;;;;2.54;62.23;100813.45;118398;1185;21867;-61
2021/12/31 10:08:40;;;;;;;33.90;19.30;;;;;;;2.55;62.15;100802.56;117283;1186;21902;-61
2021/12/31 10:11:21;;;;;;;35.00;20.10;;;;;;;2.57;62.18;100796.22;117272;1185;23545;-61
2021/12/31 10:13:59;;;;;;;33.80;20.00;;;;;;;2.59;62.15;100802.33;117456;1186;23563;-61
2021/12/31 10:16:42;;;;;;;32.00;18.50;;;;;;;2.60;62.20;100808.06;117326;1185;21905;-60
2021/12/31 10:19:15;;;;;;;34.00;21.00;;;;;;;2.59;62.20;100804.75;117312;1180;22922;-65
2021/12/31 10:21:45;;;;;;;63.90;40.00;;;;;;;2.60;62.39;100802.89;117385;1185;21861;-60
2021/12/31 10:24:34;;;;;;;56.90;37.40;;;;;;;2.63;62.26;100797.75;117159;1186;23439;-66
2021/12/31 10:27:09;;;;;;;46.40;30.00;;;;;;;2.65;62.27;100789.32;117388;1185;21860;-66
2021/12/31 10:30:00;;;;;;;56.80;36.30;;;;;;;2.67;62.23;100781.39;117337;1183;22042;-61
2021/12/31 10:32:30;;;;;;;88.30;54.20;;;;;;;2.68;62.37;100782.30;117447;1186;23702;-64
2021/12/31 10:35:19;;;;;;;118.10;77.50;;;;;;;2.69;62.34;100774.52;117321;1184;22911;-60
2021/12/31 10:37:57;;;;;;;73.10;47.30;;;;;;;2.71;62.26;100767.63;117326;1186;22620;-60
2021/12/31 10:40:43;;;;;;;62.30;41.70;;;;;;;2.70;62.27;100763.46;117292;1183;21860;-64
2021/12/31 10:43:23;;;;;;;204.40;138.70;;;;;;;2.71;62.25;100756.36;117198;1182;21870;-65
2021/12/31 10:46:07;;;;;;;150.30;80.00;;;;;;;2.71;62.12;100754.11;117218;1183;21871;-65
2021/12/31 10:48:44;;;;;;;64.30;38.00;;;;;;;2.70;62.26;100748.20;117311;1185;23210;-64
2021/12/31 10:51:14;;;;;;;79.10;37.70;;;;;;;2.68;62.32;100747.65;117364;1183;21848;-65
2021/12/31 10:53:49;;;;;;;76.50;37.40;;;;;;;2.70;62.17;100748.73;117290;1185;23708;-64
2021/12/31 10:56:17;;;;;;;162.40;62.00;;;;;;;2.71;62.28;100739.03;117194;1186;23447;-64
2021/12/31 10:58:56;;;;;;;200.00;79.20;;;;;;;2.70;62.23;100727.56;117255;1179;23438;-65
2021/12/31 11:01:25;;;;;;;377.80;165.90;;;;;;;2.69;62.27;100723.90;117304;1186;23564;-65
2021/12/31 11:03:54;;;;;;;182.80;84.80;;;;;;;2.67;62.23;100714.70;117163;1189;24150;-65
2021/12/31 11:06:23;;;;;;;162.80;84.80;;;;;;;2.69;62.27;100719.41;117249;1185;21893;-60
2021/12/31 11:08:52;;;;;;;80.40;44.80;;;;;;;2.72;62.34;100723.29;117210;1185;21880;-60
2021/12/31 11:11:21;;;;;;;66.80;37.90;;;;;;;2.75;62.40;100730.31;117359;1185;22909;-60
2021/12/31 11:13:49;;;;;;;48.30;25.30;;;;;;;2.84;62.30;100729.50;117104;1183;23470;-61
2021/12/31 11:16:18;;;;;;;42.30;22.80;;;;;;;2.88;62.20;100731.30;117191;1185;21867;-65
2021/12/31 11:18:46;;;;;;;105.60;41.30;;;;;;;2.90;62.29;100725.30;117473;1185;21862;-63
2021/12/31 11:21:14;;;;;;;92.40;40.20;;;;;;;2.92;62.32;100721.73;117280;1186;21986;-64
2021/12/31 11:23:44;;;;;;;92.20;37.80;;;;;;;2.88;62.43;100728.20;117195;1187;21854;-62